Ana Sayfa
METAR-TAF:

METAR-TAF

Havaalanları :

Sainte-Marie, Madagaskar

Enlem: 17-05S, Boylam: 049-49E, yükseklik: 2 m

Güncel hava durumu gözlemi

Rapor saat 03:00 UTC de 2 saat ve 2 dakika önce yapıldı.
Rüzgar güneydan 6 kt
Sıcaklık 24°C
Nem 89%
Basınç 1016 hPa
Görüş mesafesi 10 km veya daha fazla
1700 ft yükseklikte az bulutlu

METAR: FMMS 230300Z 18006KT 9999 FEW017 24/22 Q1016

Saat: 08:02 (05:02 UTC)

Tahmin

Rapor saat 23:00 UTC de 6 saat ve 2 dakika önce yapıldı.
Ayın 23'si saat 00 UTC'den ayın 23'si saat 24 UTC'ye kadar geçerli Tahmin
Rüzgar değişken yönden 4 kt
Görüş mesafesi 10 km veya daha fazla
1700 ft yükseklikte parçalı bulutlu
4000 ft yükseklikte parçalı bulutlu
Olasılık 30% :
Geçici
ayın 23'si saat 03 UTC'den ayın 23'si saat 08 UTC'ye kadar
Görüş mesafesi: 4000 m
sağanak yağmurlar

TAF: FMMS 222300Z 2300/2324 VRB04KT 9999 SCT017 SCT040 PROB30 TEMPO 2303/2308 4000 SHRA

4.000'den fazla havaalanı için hava durumu gözlemleri ve tahminleri (METAR ve TAF raporları).

Kullanılabilir istasyonlar harita üzerinde sarı ve kırmızı noktalarla gösterilir.

İstasyonun adını görmek için fareyi noktanın üzerinde gezdirin.

Sonrasında hava gözlem ve tahminlerini görmek için tıklayın.

Haritayı değiştirmek için: yaklaştırmak için siyah artı işaretli yeşil düğmeye ve uzaklaştırmak için de eksi işaretli düğmeye hızla tıklayın; bitişik haritalar için yeşil okları kullanın.


METAR-TAF: